Time;durP1;ratioP1;P1;durP2;ratioP2;P2;SDS_P1;SDS_P2;PMS_P1;PMS_P2;Temp;Humidity;BMP_temperature;BMP_pressure;BME280_temperature;BME280_humidity;BME280_pressure;Samples;Min_cycle;Max_cycle;Signal;HPM_P1;HPM_P2
2022/01/18 00:01:47;;;;;;;;;3.75;3.25;;;;;12.32;42.72;99384.19;6295747;22;101512;-80
2022/01/18 00:04:14;;;;;;;;;2.00;1.25;;;;;12.29;42.62;99379.97;6321229;22;101767;-81
2022/01/18 00:06:45;;;;;;;;;3.50;3.00;;;;;12.31;42.15;99388.75;6301428;22;108148;-81
2022/01/18 00:09:12;;;;;;;;;2.00;2.00;;;;;12.32;41.86;99395.88;6308272;22;102160;-81
2022/01/18 00:11:47;;;;;;;;;2.00;1.75;;;;;12.34;42.36;99404.63;6313109;22;102225;-81
2022/01/18 00:14:41;;;;;;;;;2.25;2.25;;;;;12.35;42.01;99400.91;6313066;22;102234;-81
2022/01/18 00:17:25;;;;;;;;;3.25;2.75;;;;;12.35;42.32;99400.91;6301286;22;108192;-81
2022/01/18 00:19:55;;;;;;;;;4.00;3.00;;;;;12.35;41.99;99398.19;6295366;22;102111;-81
2022/01/18 00:22:23;;;;;;;;;1.75;1.75;;;;;12.35;41.84;99398.19;6315365;22;103807;-81
2022/01/18 00:24:51;;;;;;;;;4.75;4.00;;;;;12.34;41.83;99401.91;6305667;22;101972;-81
2022/01/18 00:27:23;;;;;;;;;4.00;3.00;;;;;12.35;42.37;99408.19;6315769;22;103605;-81
2022/01/18 00:33:00;;;;;;;;;3.00;2.75;;;;;12.34;41.62;99412.75;6254101;22;102137;-81
2022/01/18 00:35:33;;;;;;;;;3.00;2.00;;;;;12.33;41.92;99416.53;6314209;22;103365;-81
2022/01/18 00:38:00;;;;;;;;;3.25;3.00;;;;;12.29;42.23;99415.22;6307893;22;103349;-81
2022/01/18 00:40:27;;;;;;;;;3.75;2.00;;;;;12.30;41.73;99425.03;6315566;22;101783;-81
2022/01/18 00:42:54;;;;;;;;;2.00;1.50;;;;;12.25;41.90;99413.91;6291337;22;101990;-81
2022/01/18 00:45:21;;;;;;;;;2.50;2.25;;;;;12.22;42.38;99419.75;6311750;22;102113;-81
2022/01/18 00:47:48;;;;;;;;;2.25;2.00;;;;;12.21;42.32;99426.19;6313274;22;103375;-78
2022/01/18 00:50:15;;;;;;;;;3.00;2.00;;;;;12.21;42.66;99437.03;6307069;22;102033;-81
2022/01/18 00:52:49;;;;;;;;;5.00;3.25;;;;;12.21;41.89;99447.88;6313701;22;102187;-81
2022/01/18 00:55:16;;;;;;;;;4.00;2.50;;;;;12.21;41.71;99447.88;6285925;22;102114;-81
2022/01/18 00:57:43;;;;;;;;;3.00;1.50;;;;;12.23;42.40;99456.66;6280599;22;104644;-81
2022/01/18 01:00:11;;;;;;;;;2.00;2.00;;;;;12.22;41.87;99465.81;6288038;22;101969;-81
2022/01/18 01:02:38;;;;;;;;;2.00;1.75;;;;;12.22;42.47;99465.81;6215243;22;101686;-81
2022/01/18 01:05:05;;;;;;;;;2.00;2.00;;;;;12.23;42.17;99467.53;6253354;22;101771;-81
2022/01/18 01:07:32;;;;;;;;;4.00;3.00;;;;;12.21;41.96;99474.97;6265431;22;103769;-81
2022/01/18 01:10:19;;;;;;;;;2.00;2.00;;;;;12.21;42.38;99474.16;6237606;22;103145;-80
2022/01/18 01:12:47;;;;;;;;;1.75;1.75;;;;;12.19;42.68;99478.94;6290572;22;102103;-81
2022/01/18 01:15:16;;;;;;;;;3.50;3.00;;;;;12.18;42.17;99480.81;6284883;22;101807;-81
2022/01/18 01:42:55;;;;;;;;;3.00;2.00;;;;;12.09;42.71;99487.34;6264574;22;101775;-77
2022/01/18 01:45:16;;;;;;;;;3.00;2.75;;;;;12.09;42.59;99487.34;6262049;22;105054;-77
2022/01/18 01:47:49;;;;;;;;;1.75;1.50;;;;;12.07;42.12;99489.41;6271147;22;102009;-77
2022/01/18 01:50:19;;;;;;;;;2.00;1.00;;;;;12.07;42.38;99476.69;6284627;22;103226;-77
2022/01/18 01:52:50;;;;;;;;;1.00;1.00;;;;;12.06;42.56;99466.06;6238463;22;103068;-77
2022/01/18 01:55:17;;;;;;;;;4.00;2.00;;;;;12.06;42.71;99476.91;6282566;22;104940;-77
2022/01/18 01:57:45;;;;;;;;;1.50;1.25;;;;;12.05;42.56;99467.09;6303282;22;102088;-77
2022/01/18 02:00:15;;;;;;;;;2.00;2.00;;;;;12.05;42.26;99469.78;6283423;22;103168;-77
2022/01/18 02:02:42;;;;;;;;;3.00;2.00;;;;;12.04;41.87;99466.25;6289978;22;104337;-77
2022/01/18 02:05:10;;;;;;;;;2.50;2.00;;;;;12.05;42.62;99472.50;6303206;22;101753;-77
2022/01/18 02:07:37;;;;;;;;;2.00;2.00;;;;;12.04;42.71;99470.81;6291898;22;101847;-77
2022/01/18 02:10:07;;;;;;;;;1.75;1.00;;;;;12.05;42.66;99480.63;6264236;22;103276;-77
2022/01/18 02:12:34;;;;;;;;;1.75;1.75;;;;;12.04;42.63;99471.66;6272328;22;103470;-77
2022/01/18 02:15:13;;;;;;;;;2.00;2.00;;;;;12.03;42.59;99477.25;6271622;22;101629;-77
2022/01/18 02:23:26;;;;;;;;;1.00;1.00;;;;;11.98;42.34;99471.56;6269258;22;101632;-77
2022/01/18 02:25:53;;;;;;;;;2.00;1.50;;;;;11.94;41.93;99472.97;6282769;22;101812;-77
2022/01/18 02:28:22;;;;;;;;;2.00;2.00;;;;;11.96;42.44;99469.06;6310965;22;102052;-77
2022/01/18 02:30:50;;;;;;;;;1.00;1.00;;;;;11.98;42.46;99471.56;6309964;22;109084;-77
2022/01/18 02:33:17;;;;;;;;;3.00;2.00;;;;;12.00;42.46;99488.50;6307732;22;102016;-76
2022/01/18 02:35:44;;;;;;;;;1.00;1.00;;;;;12.04;41.75;99476.25;6305627;22;101786;-77
2022/01/18 02:38:12;;;;;;;;;2.00;1.00;;;;;12.03;41.67;99491.66;6309200;22;101890;-77
2022/01/18 02:40:43;;;;;;;;;1.75;1.75;;;;;12.04;42.75;99482.50;6288443;22;103354;-77
2022/01/18 02:45:57;;;;;;;;;2.00;1.00;;;;;12.02;41.94;99492.69;6303726;22;101561;-77
2022/01/18 02:48:25;;;;;;;;;2.00;2.00;;;;;12.03;42.45;99493.53;6316103;22;102046;-77
2022/01/18 02:50:52;;;;;;;;;3.00;2.00;;;;;12.02;42.33;99486.44;6287051;22;107501;-77
2022/01/18 02:53:19;;;;;;;;;3.00;2.75;;;;;12.02;41.83;99475.59;6306550;22;102034;-77
2022/01/18 02:55:53;;;;;;;;;2.00;2.00;;;;;12.02;42.51;99472.91;6320123;22;101847;-77
2022/01/18 02:58:27;;;;;;;;;1.00;1.00;;;;;12.01;42.45;99476.63;6307276;22;101761;-77
2022/01/18 03:03:33;;;;;;;;;1.00;1.00;;;;;11.99;41.94;99465.13;6320772;22;101887;-77
2022/01/18 03:06:03;;;;;;;;;2.00;1.00;;;;;11.98;42.32;99463.44;6318314;22;102062;-77
2022/01/18 03:08:30;;;;;;;;;3.00;1.00;;;;;11.97;42.70;99468.03;6321778;22;101734;-77
2022/01/18 03:10:57;;;;;;;;;2.00;1.50;;;;;11.97;42.57;99483.47;6296972;22;103331;-77
2022/01/18 03:13:24;;;;;;;;;1.75;1.00;;;;;12.00;41.75;99497.47;6298625;22;102210;-76
2022/01/18 03:15:51;;;;;;;;;1.00;1.00;;;;;12.03;42.34;99496.22;6323547;22;109263;-76
2022/01/18 03:18:18;;;;;;;;;2.50;1.50;;;;;12.09;42.42;99506.34;6320984;22;101843;-77
2022/01/18 03:20:45;;;;;;;;;3.00;1.50;;;;;12.12;42.59;99495.09;6286080;22;103292;-77
2022/01/18 03:23:18;;;;;;;;;2.00;1.50;;;;;12.17;41.69;99506.22;6316732;22;102055;-77
2022/01/18 03:25:55;;;;;;;;;1.00;1.00;;;;;12.20;42.34;99505.88;6322814;22;102384;-77
2022/01/18 03:28:23;;;;;;;;;1.00;1.00;;;;;12.24;42.18;99514.47;6289089;22;102131;-77
2022/01/18 03:30:54;;;;;;;;;2.25;1.00;;;;;12.29;41.82;99507.41;6296342;22;103309;-77
2022/01/18 03:33:22;;;;;;;;;2.00;1.50;;;;;12.32;41.60;99507.06;6284141;22;101691;-77
2022/01/18 03:35:51;;;;;;;;;2.00;2.00;;;;;12.35;41.95;99508.53;6288298;22;101989;-77
2022/01/18 03:38:18;;;;;;;;;1.25;1.00;;;;;12.35;41.61;99512.09;6279950;22;101783;-76
2022/01/18 03:40:45;;;;;;;;;1.00;1.00;;;;;12.40;41.35;99520.50;6313296;22;103315;-77
2022/01/18 03:43:13;;;;;;;;;1.50;1.50;;;;;12.43;41.94;99530.97;6321015;22;102042;-77
2022/01/18 03:45:44;;;;;;;;;1.75;1.50;;;;;12.46;41.55;99535.19;6321250;22;101835;-77
2022/01/18 03:48:27;;;;;;;;;2.00;1.50;;;;;12.49;41.31;99537.50;6319825;22;101775;-76
2022/01/18 03:50:55;;;;;;;;;1.75;1.75;;;;;12.51;41.31;99538.16;6315474;22;107944;-77
2022/01/18 03:53:22;;;;;;;;;0.75;0.75;;;;;12.56;41.17;99548.44;6324477;22;101679;-77
2022/01/18 03:55:49;;;;;;;;;2.00;1.25;;;;;12.57;41.55;99547.38;6320397;22;101941;-77
2022/01/18 03:58:17;;;;;;;;;1.00;1.00;;;;;12.60;41.31;99547.03;6319813;22;104791;-77
2022/01/18 04:00:44;;;;;;;;;0.50;0.50;;;;;12.62;42.03;99547.66;6323999;22;103296;-77
2022/01/18 04:03:11;;;;;;;;;1.50;1.25;;;;;12.66;41.92;99548.97;6322884;22;102080;-77
2022/01/18 04:05:38;;;;;;;;;3.50;1.00;;;;;12.67;41.43;99540.63;6319368;22;101899;-77
2022/01/18 04:08:05;;;;;;;;;1.25;1.00;;;;;12.67;40.98;99543.34;6295724;22;101576;-77
2022/01/18 04:10:32;;;;;;;;;2.00;1.25;;;;;12.67;40.95;99556.06;6316952;22;103305;-77
2022/01/18 04:12:59;;;;;;;;;2.00;1.00;;;;;12.67;41.60;99561.50;6318194;22;101912;-77
2022/01/18 04:15:29;;;;;;;;;1.25;1.25;;;;;12.67;41.93;99556.06;6319816;22;101977;-77
2022/01/18 04:18:21;;;;;;;;;1.00;1.00;;;;;12.66;41.54;99548.97;6310272;22;102106;-77
2022/01/18 04:28:54;;;;;;;;;1.00;1.00;;;;;12.68;40.81;99585.75;6321696;22;102013;-77
2022/01/18 04:31:21;;;;;;;;;1.00;1.00;;;;;12.66;40.94;99584.22;6319162;22;103584;-77
2022/01/18 04:33:48;;;;;;;;;1.00;0.50;;;;;12.66;41.22;99576.94;6291822;22;101918;-77
2022/01/18 04:36:15;;;;;;;;;2.00;1.75;;;;;12.66;41.37;99576.09;6294183;22;102464;-77
2022/01/18 04:38:42;;;;;;;;;1.00;1.00;;;;;12.65;40.88;99583.41;6327220;22;102077;-77
2022/01/18 04:41:13;;;;;;;;;1.75;1.00;;;;;12.63;41.33;99581.91;6318424;22;103270;-77
2022/01/18 04:44:06;;;;;;;;;0.75;0.75;;;;;12.62;41.07;99591.06;6288740;22;102121;-77
2022/01/18 04:49:20;;;;;;;;;0.75;0.00;;;;;12.60;41.45;99596.72;6320739;22;101691;-77
2022/01/18 04:51:47;;;;;;;;;0.00;0.00;;;;;12.58;40.92;99590.63;6320186;22;103495;-77
2022/01/18 04:54:15;;;;;;;;;1.00;1.00;;;;;12.59;41.25;99576.03;6318869;22;101685;-77
2022/01/18 04:59:10;;;;;;;;;1.00;1.00;;;;;12.60;41.49;99598.56;6323518;22;101831;-77
2022/01/18 05:01:39;;;;;;;;;2.00;1.00;;;;;12.59;41.71;99591.47;6315569;22;103397;-77
2022/01/18 05:04:07;;;;;;;;;1.00;0.75;;;;;12.55;41.52;99593.72;6315807;22;105814;-77
2022/01/18 05:06:34;;;;;;;;;1.25;1.00;;;;;12.54;41.79;99589.31;6286700;22;102028;-77
2022/01/18 05:09:09;;;;;;;;;2.25;1.00;;;;;12.52;41.38;99592.22;6283576;22;102174;-77
2022/01/18 05:11:48;;;;;;;;;0.00;0.00;;;;;12.52;40.93;99586.78;6312307;22;103641;-77
2022/01/18 05:14:48;;;;;;;;;1.00;1.00;;;;;12.51;41.97;99597.84;6291856;22;102013;-77
2022/01/18 05:19:46;;;;;;;;;2.00;1.00;;;;;12.49;41.19;99597.19;6325743;22;101723;-77
2022/01/18 05:25:00;;;;;;;;;0.25;0.25;;;;;12.48;41.88;99612.59;6316315;22;102067;-77
2022/01/18 05:27:27;;;;;;;;;1.00;0.50;;;;;12.45;41.53;99615.72;6329016;22;102196;-77
2022/01/18 05:29:54;;;;;;;;;1.25;1.25;;;;;12.40;41.34;99615.44;6327837;22;102154;-77
2022/01/18 05:32:21;;;;;;;;;2.25;1.00;;;;;12.39;41.50;99629.16;6318124;22;103281;-77
2022/01/18 05:34:48;;;;;;;;;1.25;1.00;;;;;12.37;41.42;99632.09;6318961;22;102051;-82
2022/01/18 05:37:16;;;;;;;;;1.25;0.75;;;;;12.37;42.08;99634.78;6322445;22;101986;-82
2022/01/18 05:39:43;;;;;;;;;0.00;0.00;;;;;12.36;42.07;99624.13;6318212;22;101762;-82
2022/01/18 05:42:10;;;;;;;;;1.00;1.00;;;;;12.37;42.22;99626.66;6321144;22;103238;-81
2022/01/18 05:44:37;;;;;;;;;0.75;0.50;;;;;12.36;41.96;99627.69;6318007;22;103529;-82
2022/01/18 05:47:04;;;;;;;;;1.75;1.75;;;;;12.36;41.28;99630.41;6317894;22;102850;-82
2022/01/18 05:49:32;;;;;;;;;0.00;0.00;;;;;12.35;42.17;99633.28;6298014;22;101842;-81
2022/01/18 05:51:58;;;;;;;;;1.00;1.00;;;;;12.35;41.33;99639.56;6318924;22;103322;-81
2022/01/18 05:54:26;;;;;;;;;0.00;0.00;;;;;12.33;41.81;99636.19;6289967;22;101618;-82
2022/01/18 05:56:53;;;;;;;;;1.50;1.50;;;;;12.32;41.37;99639.09;6312921;22;110457;-82
2022/01/18 05:59:24;;;;;;;;;0.75;0.00;;;;;12.31;42.01;99637.41;6321156;22;101727;-82
2022/01/18 06:02:01;;;;;;;;;0.50;0.50;;;;;12.29;41.76;99645.72;6283860;22;103446;-82
2022/01/18 06:07:14;;;;;;;;;1.50;1.00;;;;;12.29;42.08;99640.28;6314323;22;101751;-82
2022/01/18 06:09:41;;;;;;;;;1.50;1.00;;;;;12.27;41.85;99647.78;6309629;22;102043;-82
2022/01/18 06:12:09;;;;;;;;;2.00;1.00;;;;;12.26;42.10;99635.25;6325263;22;103102;-82
2022/01/18 06:14:36;;;;;;;;;1.00;1.00;;;;;12.26;41.45;99643.38;6324960;22;101825;-82
2022/01/18 06:17:03;;;;;;;;;1.00;1.00;;;;;12.22;41.90;99642.06;6320850;22;104276;-82
2022/01/18 06:19:30;;;;;;;;;1.00;1.00;;;;;12.19;41.39;99644.31;6298537;22;101700;-81
2022/01/18 06:21:57;;;;;;;;;0.75;0.75;;;;;12.22;41.93;99644.78;6324529;22;103443;-82
2022/01/18 06:24:24;;;;;;;;;0.50;0.00;;;;;12.27;41.81;99645.06;6325006;22;101631;-82
2022/01/18 06:27:04;;;;;;;;;0.50;0.50;;;;;12.32;42.29;99644.50;6317305;22;102073;-82
2022/01/18 06:29:31;;;;;;;;;1.00;1.00;;;;;12.36;42.08;99645.81;6322433;22;102061;-82
2022/01/18 06:31:58;;;;;;;;;1.75;1.00;;;;;12.38;41.51;99652.72;6327051;22;103310;-81
2022/01/18 06:34:26;;;;;;;;;1.00;1.00;;;;;12.44;42.21;99662.84;6318798;22;101640;-82
2022/01/18 06:36:53;;;;;;;;;1.25;0.75;;;;;12.46;41.23;99663.50;6313219;22;101522;-82
2022/01/18 06:39:20;;;;;;;;;2.25;0.00;;;;;12.48;41.90;99668.72;6323531;22;101806;-77
2022/01/18 06:41:47;;;;;;;;;0.50;0.00;;;;;12.50;41.95;99670.25;6325215;22;103305;-77
2022/01/18 06:44:14;;;;;;;;;1.00;1.00;;;;;12.57;41.74;99680.31;6322300;22;102157;-77
2022/01/18 06:46:41;;;;;;;;;0.00;0.00;;;;;12.58;41.14;99682.84;6322399;22;101618;-77
2022/01/18 06:49:08;;;;;;;;;1.00;1.00;;;;;12.59;41.48;99694.56;6323111;22;104118;-82
2022/01/18 06:51:35;;;;;;;;;2.00;0.00;;;;;12.62;41.92;99699.59;6324239;22;103546;-82
2022/01/18 06:54:02;;;;;;;;;1.00;1.00;;;;;12.67;41.49;99706.16;6322799;22;101688;-82
2022/01/18 06:56:29;;;;;;;;;2.25;1.00;;;;;12.70;40.82;99708.47;6317656;22;101650;-82
2022/01/18 06:58:59;;;;;;;;;1.75;0.00;;;;;12.72;41.69;99706.44;6323551;22;102094;-81
2022/01/18 07:01:26;;;;;;;;;0.00;0.00;;;;;12.72;41.17;99717.28;6324965;22;103345;-82
2022/01/18 07:03:53;;;;;;;;;0.00;0.00;;;;;12.75;41.17;99714.19;6323679;22;102382;-82
2022/01/18 07:06:20;;;;;;;;;1.00;1.00;;;;;12.79;41.81;99720.09;6320941;22;101490;-82
2022/01/18 07:08:47;;;;;;;;;1.00;0.50;;;;;12.80;41.77;99719.91;6297873;22;101593;-77
2022/01/18 07:11:16;;;;;;;;;0.25;0.25;;;;;12.83;41.61;99724.94;6322409;22;103254;-82
2022/01/18 07:13:43;;;;;;;;;2.00;1.00;;;;;12.85;41.57;99736.47;6316147;22;102010;-82
2022/01/18 07:16:10;;;;;;;;;1.00;0.00;;;;;12.88;41.69;99732.53;6322203;22;102372;-82
2022/01/18 07:18:37;;;;;;;;;1.00;0.00;;;;;12.92;40.99;99739.28;6329613;22;101985;-82
2022/01/18 07:21:04;;;;;;;;;1.00;0.00;;;;;12.93;40.81;99741.81;6326828;22;105247;-82
2022/01/18 07:23:31;;;;;;;;;0.00;0.00;;;;;12.94;40.91;99742.66;6317496;22;102772;-82
2022/01/18 07:26:02;;;;;;;;;1.50;0.00;;;;;12.95;40.66;99745.19;6321144;22;101577;-82
2022/01/18 07:28:29;;;;;;;;;1.50;1.00;;;;;12.98;41.14;99749.38;6298594;22;101877;-82
2022/01/18 07:30:56;;;;;;;;;0.50;0.50;;;;;12.99;41.01;99753.78;6329134;22;103261;-82
2022/01/18 07:33:23;;;;;;;;;0.00;0.00;;;;;13.03;41.05;99763.25;6314973;22;101811;-82
2022/01/18 07:35:51;;;;;;;;;1.00;0.00;;;;;13.05;40.83;99761.19;6321599;22;101859;-82
2022/01/18 07:38:18;;;;;;;;;0.75;0.75;;;;;13.06;40.96;99773.72;6327420;22;102904;-82
2022/01/18 07:40:46;;;;;;;;;0.00;0.00;;;;;13.08;41.56;99766.22;6291974;22;103502;-82
2022/01/18 07:43:16;;;;;;;;;1.00;0.50;;;;;13.11;40.77;99770.47;6319180;22;102048;-77
2022/01/18 07:45:44;;;;;;;;;2.00;0.50;;;;;13.11;40.83;99771.31;6322538;22;101520;-77
2022/01/18 07:48:12;;;;;;;;;0.75;0.75;;;;;13.14;41.53;99770.94;6274049;22;101855;-77
2022/01/18 07:50:40;;;;;;;;;0.50;0.00;;;;;13.17;40.63;99781.44;6325425;22;103276;-77
2022/01/18 07:53:08;;;;;;;;;0.25;0.00;;;;;13.20;40.99;99780.19;6316374;22;101924;-77
2022/01/18 07:55:35;;;;;;;;;2.00;1.00;;;;;13.22;40.64;99795.28;6306001;22;101896;-77
2022/01/18 07:58:02;;;;;;;;;0.00;0.00;;;;;13.24;41.48;99793.22;6324472;22;101719;-77
2022/01/18 08:00:29;;;;;;;;;1.00;0.00;;;;;13.25;40.44;99794.91;6324052;22;103193;-77
2022/01/18 08:02:57;;;;;;;;;0.00;0.00;;;;;13.27;40.53;99795.56;6317792;22;101692;-82
2022/01/18 08:05:24;;;;;;;;;0.25;0.00;;;;;13.29;41.01;99798.91;6313345;22;102152;-82
2022/01/18 08:07:51;;;;;;;;;0.00;0.00;;;;;13.30;41.42;99794.34;6322258;22;102268;-82
2022/01/18 08:10:18;;;;;;;;;0.50;0.50;;;;;13.31;40.46;99794.16;6318310;22;103318;-82
2022/01/18 08:12:46;;;;;;;;;0.00;0.00;;;;;13.33;41.18;99802.94;6311069;22;102181;-82
2022/01/18 08:15:20;;;;;;;;;0.50;0.50;;;;;13.33;40.65;99811.09;6305094;22;101923;-82
2022/01/18 08:17:51;;;;;;;;;2.00;0.00;;;;;13.36;40.65;99813.44;6296231;22;101884;-82
2022/01/18 08:20:18;;;;;;;;;0.00;0.00;;;;;13.37;40.52;99815.09;6314816;22;103676;-82
2022/01/18 08:22:45;;;;;;;;;1.75;0.00;;;;;13.40;41.42;99812.03;6320449;22;102044;-82
2022/01/18 08:25:14;;;;;;;;;1.00;1.00;;;;;13.43;41.14;99812.66;6307062;22;101910;-82
2022/01/18 08:27:41;;;;;;;;;1.00;1.00;;;;;13.44;40.60;99819.78;6317664;22;101858;-82
2022/01/18 08:30:10;;;;;;;;;0.00;0.00;;;;;13.46;40.73;99824.03;6289714;22;103347;-82
2022/01/18 08:32:37;;;;;;;;;0.00;0.00;;;;;13.48;40.46;99826.53;6320693;22;102182;-82
2022/01/18 08:35:05;;;;;;;;;0.00;0.00;;;;;13.50;40.94;99825.31;6289185;22;101851;-82
2022/01/18 08:37:32;;;;;;;;;0.00;0.00;;;;;13.53;40.46;99841.25;6322523;22;104127;-79
2022/01/18 08:39:59;;;;;;;;;0.00;0.00;;;;;13.54;40.38;99842.94;6322402;22;103430;-82
2022/01/18 08:42:26;;;;;;;;;0.00;0.00;;;;;13.56;40.40;99845.44;6306400;22;101785;-82
2022/01/18 08:44:53;;;;;;;;;0.00;0.00;;;;;13.58;40.56;99843.38;6291802;22;102089;-82
2022/01/18 08:47:20;;;;;;;;;0.00;0.00;;;;;13.59;40.31;99848.66;6324837;22;101875;-82
2022/01/18 08:49:47;;;;;;;;;0.00;0.00;;;;;13.60;40.26;99857.66;6323776;22;103275;-82
2022/01/18 08:52:14;;;;;;;;;1.00;1.00;;;;;13.61;40.16;99868.31;6322031;22;102117;-82
2022/01/18 08:54:42;;;;;;;;;1.00;1.00;;;;;13.62;40.81;99871.88;6325431;22;101802;-82
2022/01/18 08:57:11;;;;;;;;;0.00;0.00;;;;;13.64;40.52;99883.41;6318103;22;102772;-82
2022/01/18 08:59:39;;;;;;;;;0.00;0.00;;;;;13.64;40.51;99888.84;6289626;22;103311;-82
2022/01/18 09:02:06;;;;;;;;;2.25;1.00;;;;;13.66;40.70;99901.19;6316415;22;101952;-82
2022/01/18 09:04:34;;;;;;;;;1.00;1.00;;;;;13.67;41.07;99900.19;6319996;22;101571;-82
2022/01/18 09:07:06;;;;;;;;;1.50;0.75;;;;;13.68;41.18;99903.75;6304349;22;102136;-82
2022/01/18 09:09:38;;;;;;;;;1.00;0.50;;;;;13.69;40.69;99911.69;6291627;22;107715;-77
2022/01/18 09:12:07;;;;;;;;;0.75;0.75;;;;;13.70;40.90;99921.53;6320825;22;102011;-77
2022/01/18 09:14:34;;;;;;;;;0.00;0.00;;;;;13.73;41.18;99917.59;6320879;22;101673;-77
2022/01/18 09:17:02;;;;;;;;;0.00;0.00;;;;;13.72;40.37;99922.19;6329519;22;102179;-77
2022/01/18 09:19:29;;;;;;;;;1.00;0.00;;;;;13.75;41.11;99924.53;6298104;22;108187;-77
2022/01/18 09:21:57;;;;;;;;;0.00;0.00;;;;;13.77;41.07;99918.91;6315177;22;101723;-77
2022/01/18 09:24:25;;;;;;;;;0.50;0.50;;;;;13.76;41.15;99918.06;6317646;22;101717;-77
2022/01/18 09:26:53;;;;;;;;;1.00;1.00;;;;;13.77;41.21;99916.19;6328186;22;102079;-77
2022/01/18 09:29:20;;;;;;;;;0.00;0.00;;;;;13.80;40.57;99926.69;6322011;22;103467;-77
2022/01/18 09:31:48;;;;;;;;;1.00;1.00;;;;;13.80;40.41;99930.25;6312547;22;101723;-77
2022/01/18 09:34:15;;;;;;;;;1.00;1.00;;;;;13.80;40.98;99929.41;6296258;22;102107;-77
2022/01/18 09:36:43;;;;;;;;;1.00;1.00;;;;;13.83;40.63;99929.00;6326268;22;101734;-77
2022/01/18 09:39:10;;;;;;;;;1.50;1.00;;;;;13.82;40.26;99939.03;6319767;22;104085;-77
2022/01/18 09:41:40;;;;;;;;;0.00;0.00;;;;;13.83;40.41;99937.16;6309905;22;102032;-82
2022/01/18 09:44:07;;;;;;;;;1.25;0.75;;;;;13.84;40.36;99937.00;6289576;22;102033;-81
2022/01/18 09:46:34;;;;;;;;;1.00;1.00;;;;;13.85;40.23;99948.72;6292909;22;101805;-81
2022/01/18 09:49:02;;;;;;;;;0.00;0.00;;;;;13.85;40.58;99943.28;6327419;22;103198;-82
2022/01/18 09:51:29;;;;;;;;;0.00;0.00;;;;;13.86;40.28;99944.97;6319048;22;101545;-77
2022/01/18 09:53:57;;;;;;;;;0.00;0.00;;;;;13.89;40.29;99949.16;6323521;22;101494;-77
2022/01/18 09:56:30;;;;;;;;;0.50;0.00;;;;;13.90;40.63;99945.44;6330920;22;102570;-77
2022/01/18 09:58:56;;;;;;;;;1.00;0.75;;;;;13.92;41.06;99949.63;6314820;22;103068;-77
2022/01/18 10:01:25;;;;;;;;;1.00;1.00;;;;;13.92;40.99;99948.78;6326971;22;111142;-77
2022/01/18 10:03:52;;;;;;;;;0.00;0.00;;;;;13.92;40.09;99946.91;6286695;22;102391;-77
2022/01/18 10:06:21;;;;;;;;;0.00;0.00;;;;;13.94;40.23;99949.44;6264521;22;101808;-77
2022/01/18 10:08:48;;;;;;;;;0.00;0.00;;;;;13.96;40.13;99950.94;6297037;22;103609;-77
2022/01/18 10:11:17;;;;;;;;;0.00;0.00;;;;;13.96;40.37;99950.94;6290844;22;101895;-77
2022/01/18 10:13:46;;;;;;;;;1.00;0.75;;;;;13.98;40.73;99945.31;6314489;22;101969;-82
2022/01/18 10:16:20;;;;;;;;;1.00;0.50;;;;;13.97;40.42;99939.03;6320332;22;101687;-82
2022/01/18 10:18:53;;;;;;;;;2.00;1.00;;;;;13.97;40.38;99949.06;6318129;22;103479;-81
2022/01/18 10:21:34;;;;;;;;;1.00;0.50;;;;;13.98;40.57;99943.44;6313020;22;102008;-81
2022/01/18 10:24:16;;;;;;;;;0.25;0.25;;;;;14.00;40.76;99940.53;6311593;22;101710;-82
2022/01/18 10:26:44;;;;;;;;;0.25;0.00;;;;;14.01;40.24;99948.50;6308193;22;102212;-81
2022/01/18 10:29:12;;;;;;;;;1.00;0.25;;;;;14.01;40.76;99943.06;6319826;22;103335;-81
2022/01/18 10:31:55;;;;;;;;;0.00;0.00;;;;;14.02;40.93;99935.75;6315886;22;102087;-81
2022/01/18 10:37:07;;;;;;;;;1.25;1.00;;;;;14.02;40.88;99944.75;6297821;22;101660;-81
2022/01/18 10:39:39;;;;;;;;;1.00;1.00;;;;;14.05;40.43;99951.69;6286831;22;108029;-81
2022/01/18 10:42:17;;;;;;;;;0.50;0.00;;;;;14.06;40.38;99947.91;6313868;22;102012;-81
2022/01/18 10:45:05;;;;;;;;;0.00;0.00;;;;;14.08;40.78;99959.47;6316833;22;102215;-81
2022/01/18 10:47:32;;;;;;;;;1.00;0.00;;;;;14.08;40.21;99959.47;6297529;22;101794;-82
2022/01/18 10:50:08;;;;;;;;;1.00;1.00;;;;;14.08;40.82;99948.59;6323760;22;107847;-82
2022/01/18 10:52:35;;;;;;;;;0.00;0.00;;;;;14.08;40.26;99944.00;6286573;22;101998;-81
2022/01/18 10:55:02;;;;;;;;;0.00;0.00;;;;;14.10;40.38;99946.50;6324565;22;102152;-77
2022/01/18 10:57:30;;;;;;;;;1.00;0.50;;;;;14.10;40.15;99958.22;6326995;22;101723;-77
2022/01/18 10:59:58;;;;;;;;;0.00;0.00;;;;;14.12;40.95;99958.91;6318715;22;103350;-77
2022/01/18 11:02:25;;;;;;;;;0.00;0.00;;;;;14.12;40.91;99961.63;6294483;22;101750;-77
2022/01/18 11:04:54;;;;;;;;;0.50;0.50;;;;;14.13;40.22;99966.03;6297665;22;102139;-77
2022/01/18 11:07:25;;;;;;;;;1.25;0.25;;;;;14.13;40.04;99955.16;6319840;22;102563;-77
2022/01/18 11:09:53;;;;;;;;;0.00;0.00;;;;;14.15;40.74;99957.66;6324084;22;103308;-77
2022/01/18 11:12:24;;;;;;;;;1.00;0.00;;;;;14.13;40.47;99955.16;6317313;22;101826;-77
2022/01/18 11:15:03;;;;;;;;;0.00;0.00;;;;;14.15;40.57;99950.34;6298541;22;102131;-77
2022/01/18 11:17:38;;;;;;;;;0.00;0.00;;;;;14.16;40.37;99962.91;6329274;22;102705;-77
2022/01/18 11:20:06;;;;;;;;;2.00;1.00;;;;;14.15;40.12;99961.22;6290639;22;108128;-81
2022/01/18 11:22:33;;;;;;;;;3.00;1.00;;;;;14.17;40.10;99959.16;6295346;22;102018;-81
2022/01/18 11:25:02;;;;;;;;;0.00;0.00;;;;;14.17;40.71;99961.88;6327828;22;102020;-82
2022/01/18 11:27:30;;;;;;;;;1.00;1.00;;;;;14.19;40.26;99967.97;6324243;22;101731;-82
2022/01/18 11:29:57;;;;;;;;;1.75;0.00;;;;;14.20;40.88;99966.09;6298136;22;103333;-82
2022/01/18 11:32:27;;;;;;;;;1.00;0.00;;;;;14.20;40.21;99966.94;6322204;22;102010;-81
2022/01/18 11:34:57;;;;;;;;;0.00;0.00;;;;;14.21;40.22;99976.78;6300457;22;102214;-82
2022/01/18 11:37:47;;;;;;;;;0.00;0.00;;;;;14.22;40.38;99983.94;6319921;22;101749;-81
2022/01/18 11:40:16;;;;;;;;;2.00;0.75;;;;;14.23;40.68;99979.28;6280178;22;107937;-81
2022/01/18 11:43:09;;;;;;;;;1.00;0.25;;;;;14.22;40.62;99992.09;6320770;22;102571;-81
2022/01/18 11:45:39;;;;;;;;;1.00;0.25;;;;;14.23;40.62;99992.91;6314064;22;101700;-81
2022/01/18 11:48:19;;;;;;;;;0.00;0.00;;;;;14.24;40.28;100000.88;6323725;22;102010;-80
2022/01/18 11:51:00;;;;;;;;;0.50;0.00;;;;;14.24;40.07;99998.16;6324948;22;103294;-81
2022/01/18 11:53:42;;;;;;;;;1.25;0.00;;;;;14.24;40.21;99995.44;6283094;22;101707;-81
2022/01/18 11:56:14;;;;;;;;;2.00;1.00;;;;;14.24;40.32;99986.44;6307893;22;101554;-81
2022/01/18 11:58:43;;;;;;;;;0.75;0.75;;;;;14.25;40.64;100001.72;6312664;22;102051;-81
2022/01/18 12:01:10;;;;;;;;;1.00;1.00;;;;;14.25;40.15;100004.44;6304062;22;103318;-81
2022/01/18 12:03:45;;;;;;;;;1.25;1.00;;;;;14.26;40.51;100007.00;6289021;22;102606;-81
2022/01/18 12:06:12;;;;;;;;;2.50;1.00;;;;;14.26;40.12;100001.56;6316036;22;101664;-81
2022/01/18 12:08:41;;;;;;;;;1.00;0.00;;;;;14.28;40.66;100017.66;6295057;22;102377;-81
2022/01/18 12:11:26;;;;;;;;;0.00;0.00;;;;;14.28;40.70;100013.06;6289459;22;103288;-81
2022/01/18 12:13:57;;;;;;;;;0.00;0.00;;;;;14.28;40.19;100010.34;6323740;22;101643;-82
2022/01/18 12:16:27;;;;;;;;;0.00;0.00;;;;;14.29;40.19;100012.03;6321510;22;102014;-81
2022/01/18 12:19:05;;;;;;;;;2.00;1.75;;;;;14.29;40.54;100011.19;6324125;22;102688;-81
2022/01/18 12:21:34;;;;;;;;;1.50;1.00;;;;;14.29;40.59;100017.47;6326980;22;107952;-81
2022/01/18 12:24:20;;;;;;;;;1.00;1.00;;;;;14.30;40.37;100023.78;6317219;22;101887;-77
2022/01/18 12:26:58;;;;;;;;;0.75;0.75;;;;;14.31;40.14;100014.59;6292936;22;101834;-77
2022/01/18 12:34:33;;;;;;;;;0.00;0.00;;;;;14.30;40.26;100024.63;6320063;22;102026;-81
2022/01/18 12:37:11;;;;;;;;;1.00;1.00;;;;;14.30;40.71;100026.50;6322304;22;101803;-77
2022/01/18 12:39:51;;;;;;;;;1.00;0.25;;;;;14.30;40.31;100023.78;6318831;22;102019;-77
2022/01/18 12:44:58;;;;;;;;;1.00;1.00;;;;;14.32;40.08;100035.28;6295844;22;101984;-77
2022/01/18 12:47:25;;;;;;;;;0.50;0.50;;;;;14.32;40.10;100042.63;6298766;22;102757;-77